createdAt,value
2023-05-06T00:00:07.089Z,0.4790
2023-05-06T00:01:10.139Z,0.4756
2023-05-06T00:02:12.999Z,0.4773
2023-05-06T00:03:15.982Z,0.4793
2023-05-06T00:04:18.934Z,0.4859
2023-05-06T00:05:21.968Z,0.4783
2023-05-06T00:06:24.818Z,0.4815
2023-05-06T00:07:27.777Z,0.4857
2023-05-06T00:08:30.703Z,0.4902
2023-05-06T00:09:33.695Z,0.5011
2023-05-06T00:10:36.606Z,0.4987
2023-05-06T00:11:39.573Z,0.4796
2023-05-06T00:12:42.506Z,0.4678
2023-05-06T00:13:45.469Z,0.4649
2023-05-06T00:14:48.495Z,0.4688
2023-05-06T00:15:51.424Z,0.4661
2023-05-06T00:16:54.346Z,0.4734
2023-05-06T00:17:57.484Z,0.4883
2023-05-06T00:19:00.387Z,0.4848
2023-05-06T00:20:03.204Z,0.4764
2023-05-06T00:21:06.165Z,0.4641
2023-05-06T00:22:09.089Z,0.4677
2023-05-06T00:23:12.053Z,0.4681
2023-05-06T00:24:15.037Z,0.4821
2023-05-06T00:25:17.969Z,0.4889
2023-05-06T00:26:20.896Z,0.4926
2023-05-06T00:27:23.845Z,0.4636
2023-05-06T00:28:26.800Z,0.4669
2023-05-06T00:29:29.742Z,0.4849
2023-05-06T00:30:32.736Z,0.4827
2023-05-06T00:31:35.771Z,0.4738
2023-05-06T00:32:38.659Z,0.4799
2023-05-06T00:33:41.584Z,0.4818
2023-05-06T00:34:44.661Z,0.4990
2023-05-06T00:35:47.546Z,0.5035
2023-05-06T00:36:50.410Z,0.5028
2023-05-06T00:37:53.386Z,0.4977
2023-05-06T00:38:56.376Z,0.5046
2023-05-06T00:39:59.346Z,0.4980
2023-05-06T00:41:02.229Z,0.5001
2023-05-06T00:42:05.176Z,0.5026
2023-05-06T00:43:08.126Z,0.5132
2023-05-06T00:44:11.077Z,0.4753
2023-05-06T00:45:14.024Z,0.4881
2023-05-06T00:46:17.070Z,0.4771
2023-05-06T00:47:19.947Z,0.4858
2023-05-06T00:48:23.015Z,0.4928
2023-05-06T00:49:25.820Z,0.4889
2023-05-06T00:50:28.785Z,0.4700
2023-05-06T00:51:31.750Z,0.4806
2023-05-06T00:52:34.714Z,0.4809
2023-05-06T00:53:37.649Z,0.4740
2023-05-06T00:54:40.604Z,0.4751
2023-05-06T00:55:43.605Z,0.4725
2023-05-06T00:56:46.533Z,0.4677
2023-05-06T00:57:49.447Z,0.4940
2023-05-06T00:58:52.393Z,0.4961
2023-05-06T00:59:55.349Z,0.4825
2023-05-06T01:00:58.303Z,0.4907
2023-05-06T01:02:01.376Z,0.4999
2023-05-06T01:03:04.335Z,0.4710
2023-05-06T01:04:07.196Z,0.4498
2023-05-06T01:05:10.379Z,0.4551
2023-05-06T01:06:13.052Z,0.4621
2023-05-06T01:07:16.013Z,0.4760
2023-05-06T01:08:19.168Z,0.4717
2023-05-06T01:09:21.936Z,0.4859
2023-05-06T01:10:24.879Z,0.4952
2023-05-06T01:11:27.820Z,0.4751
2023-05-06T01:12:30.766Z,0.4668
2023-05-06T01:13:33.721Z,0.4713
2023-05-06T01:14:36.660Z,0.4731
2023-05-06T01:15:39.621Z,0.4613
2023-05-06T01:16:42.617Z,0.4741
2023-05-06T01:17:45.521Z,0.4766
2023-05-06T01:18:48.450Z,0.4849
2023-05-06T01:19:51.446Z,0.4813
2023-05-06T01:20:54.382Z,0.4870
2023-05-06T01:21:57.364Z,0.4964
2023-05-06T01:23:00.305Z,0.5243
2023-05-06T01:24:03.206Z,0.4948
2023-05-06T01:25:06.203Z,0.4834
2023-05-06T01:26:09.099Z,0.4845
2023-05-06T01:27:12.060Z,0.4689
2023-05-06T01:28:15.005Z,0.4774
2023-05-06T01:29:17.909Z,0.4746
2023-05-06T01:30:20.859Z,0.4833
2023-05-06T01:31:23.837Z,0.4823
2023-05-06T01:32:26.768Z,0.4819
2023-05-06T01:33:29.691Z,0.4864
2023-05-06T01:34:32.644Z,0.4940
2023-05-06T01:35:35.591Z,0.4903
2023-05-06T01:36:38.531Z,0.4849
2023-05-06T01:37:41.581Z,0.4756
2023-05-06T01:38:44.413Z,0.5088
2023-05-06T01:39:47.392Z,0.5119
2023-05-06T01:40:50.304Z,0.5028
2023-05-06T01:41:53.253Z,0.4985
2023-05-06T01:42:56.207Z,0.4906
2023-05-06T01:43:59.156Z,0.4858
2023-05-06T01:45:02.137Z,0.4832
2023-05-06T01:46:05.044Z,0.4819
2023-05-06T01:47:07.998Z,0.4768
2023-05-06T01:48:10.930Z,0.4894
2023-05-06T01:49:13.869Z,0.5003
2023-05-06T01:50:16.844Z,0.5136
2023-05-06T01:51:19.764Z,0.5088
2023-05-06T01:52:22.704Z,0.5099
2023-05-06T01:53:25.706Z,0.4824
2023-05-06T01:54:28.565Z,0.4815
2023-05-06T01:55:31.583Z,0.4821
2023-05-06T01:56:34.453Z,0.4709
2023-05-06T01:57:37.403Z,0.4517
2023-05-06T01:58:40.358Z,0.4463
2023-05-06T01:59:43.288Z,0.4677
2023-05-06T02:00:46.252Z,0.4712
2023-05-06T02:01:49.209Z,0.4648
2023-05-06T02:02:52.241Z,0.4843
2023-05-06T02:03:55.120Z,0.5060
2023-05-06T02:04:58.038Z,0.4877
2023-05-06T02:06:01.033Z,0.4906
2023-05-06T02:07:03.888Z,0.4958
2023-05-06T02:08:06.822Z,0.5139
2023-05-06T02:09:09.836Z,0.4886
2023-05-06T02:10:12.744Z,0.4768
2023-05-06T02:11:15.661Z,0.4881
2023-05-06T02:12:18.628Z,0.4908
2023-05-06T02:13:21.600Z,0.4848
2023-05-06T02:14:24.498Z,0.4868
2023-05-06T02:15:27.565Z,0.4531
2023-05-06T02:16:30.394Z,0.4406
2023-05-06T02:17:33.381Z,0.4593
2023-05-06T02:18:36.312Z,0.4744
2023-05-06T02:19:39.204Z,0.4652
2023-05-06T02:20:42.165Z,0.4478
2023-05-06T02:21:45.101Z,0.4498
2023-05-06T02:22:48.111Z,0.4695
2023-05-06T02:23:51.041Z,0.4669
2023-05-06T02:24:53.993Z,0.4761
2023-05-06T02:25:56.864Z,0.4889
2023-05-06T02:26:59.815Z,0.4902
2023-05-06T02:28:02.762Z,0.4874
2023-05-06T02:29:05.711Z,0.4829
2023-05-06T02:30:08.648Z,0.4788
2023-05-06T02:31:11.620Z,0.4791
2023-05-06T02:32:14.576Z,0.4736
2023-05-06T02:33:17.510Z,0.4851
2023-05-06T02:34:20.439Z,0.4823
2023-05-06T02:35:23.397Z,0.4754
2023-05-06T02:36:26.344Z,0.4778
2023-05-06T02:37:29.262Z,0.4859
2023-05-06T02:38:32.216Z,0.4794
2023-05-06T02:39:35.214Z,0.4960
2023-05-06T02:40:38.157Z,0.4992
2023-05-06T02:41:41.073Z,0.4904
2023-05-06T02:42:44.031Z,0.4860
2023-05-06T02:43:46.933Z,0.4922
2023-05-06T02:44:49.871Z,0.4707
2023-05-06T02:45:52.828Z,0.4869
2023-05-06T02:46:55.764Z,0.4927
2023-05-06T02:47:58.762Z,0.4809
2023-05-06T02:49:01.644Z,0.4932
2023-05-06T02:50:04.591Z,0.4974
2023-05-06T02:51:07.562Z,0.4952
2023-05-06T02:52:10.475Z,0.5000
2023-05-06T02:53:13.453Z,0.4926
2023-05-06T02:54:16.345Z,0.4922
2023-05-06T02:55:19.305Z,0.5008
2023-05-06T02:56:22.314Z,0.4970
2023-05-06T02:57:25.178Z,0.4998
2023-05-06T02:58:28.151Z,0.5017
2023-05-06T02:59:31.071Z,0.4994
2023-05-06T03:00:34.120Z,0.5020
2023-05-06T03:01:37.104Z,0.4913
2023-05-06T03:02:39.913Z,0.4686
2023-05-06T03:03:42.834Z,0.4750
2023-05-06T03:04:45.769Z,0.4948
2023-05-06T03:05:48.730Z,0.4747
2023-05-06T03:06:51.660Z,0.4829
2023-05-06T03:07:54.618Z,0.4926
2023-05-06T03:08:57.538Z,0.4777
2023-05-06T03:10:00.519Z,0.4817
2023-05-06T03:11:03.437Z,0.5010
2023-05-06T03:12:06.394Z,0.5106
2023-05-06T03:13:09.560Z,0.5209
2023-05-06T03:14:12.262Z,0.5128
2023-05-06T03:15:15.257Z,0.5142
2023-05-06T03:16:18.185Z,0.5115
2023-05-06T03:17:21.087Z,0.4837
2023-05-06T03:18:24.052Z,0.4675
2023-05-06T03:19:26.958Z,0.4692
2023-05-06T03:20:29.910Z,0.4690
2023-05-06T03:21:32.873Z,0.4828
2023-05-06T03:22:35.871Z,0.4851
2023-05-06T03:23:38.753Z,0.4912
2023-05-06T03:24:41.689Z,0.4879
2023-05-06T03:25:44.629Z,0.5056
2023-05-06T03:26:47.584Z,0.4936
2023-05-06T03:27:50.525Z,0.4859
2023-05-06T03:28:53.497Z,0.4883
2023-05-06T03:29:56.396Z,0.5023
2023-05-06T03:30:59.430Z,0.4954
2023-05-06T03:32:02.383Z,0.4873
2023-05-06T03:33:05.403Z,0.4818
2023-05-06T03:34:08.249Z,0.4772
2023-05-06T03:35:11.498Z,0.4905
2023-05-06T03:36:14.141Z,0.4996
2023-05-06T03:37:17.071Z,0.5029
2023-05-06T03:38:20.018Z,0.4823
2023-05-06T03:39:22.989Z,0.4851
2023-05-06T03:40:25.890Z,0.4870
2023-05-06T03:41:28.855Z,0.4779
2023-05-06T03:42:31.784Z,0.4902
2023-05-06T03:43:34.850Z,0.4966
2023-05-06T03:44:37.677Z,0.4856
2023-05-06T03:45:40.606Z,0.4871
2023-05-06T03:46:43.667Z,0.4597
2023-05-06T03:47:46.826Z,0.4721
2023-05-06T03:48:49.416Z,0.5000
2023-05-06T03:49:52.391Z,0.5108
2023-05-06T03:50:55.293Z,0.4988
2023-05-06T03:51:58.242Z,0.5007
2023-05-06T03:53:01.178Z,0.4847
2023-05-06T03:54:04.113Z,0.4802
2023-05-06T03:55:07.230Z,0.4642
2023-05-06T03:56:10.017Z,0.4875
2023-05-06T03:57:12.940Z,0.4840
2023-05-06T03:58:15.878Z,0.4800
2023-05-06T03:59:18.893Z,0.4856
2023-05-06T04:00:21.786Z,0.4756
2023-05-06T04:01:24.700Z,0.5001
2023-05-06T04:02:27.705Z,0.5145
2023-05-06T04:03:30.692Z,0.5265
2023-05-06T04:04:33.529Z,0.4907
2023-05-06T04:05:36.632Z,0.4923
2023-05-06T04:06:39.434Z,0.5014
2023-05-06T04:07:42.379Z,0.5048
2023-05-06T04:08:45.344Z,0.4950
2023-05-06T04:09:48.238Z,0.4962
2023-05-06T04:10:51.245Z,0.4942
2023-05-06T04:11:54.112Z,0.4939
2023-05-06T04:12:57.109Z,0.4853
2023-05-06T04:14:00.081Z,0.5043
2023-05-06T04:15:03.030Z,0.5054
2023-05-06T04:16:05.933Z,0.4932
2023-05-06T04:17:08.870Z,0.4893
2023-05-06T04:18:11.798Z,0.5007
2023-05-06T04:19:14.884Z,0.4952
2023-05-06T04:20:17.682Z,0.5050
2023-05-06T04:21:20.654Z,0.5098
2023-05-06T04:22:23.595Z,0.5175
2023-05-06T04:23:26.572Z,0.5149
2023-05-06T04:24:29.469Z,0.5052
2023-05-06T04:25:32.408Z,0.4992
2023-05-06T04:26:35.332Z,0.4894
2023-05-06T04:27:38.296Z,0.4943
2023-05-06T04:28:41.226Z,0.5120
2023-05-06T04:29:44.213Z,0.4966
2023-05-06T04:30:47.182Z,0.5057
2023-05-06T04:31:50.121Z,0.5017
2023-05-06T04:32:53.047Z,0.5117
2023-05-06T04:33:55.939Z,0.4821
2023-05-06T04:34:58.900Z,0.4913
2023-05-06T04:36:01.882Z,0.4920
2023-05-06T04:37:04.798Z,0.4819
2023-05-06T04:38:07.735Z,0.4928
2023-05-06T04:39:10.683Z,0.5093
2023-05-06T04:40:13.730Z,0.4988
2023-05-06T04:41:16.578Z,0.4964
2023-05-06T04:42:19.507Z,0.4924
2023-05-06T04:43:22.470Z,0.4807
2023-05-06T04:44:25.415Z,0.4848
2023-05-06T04:45:28.386Z,0.4837
2023-05-06T04:46:31.426Z,0.4667
2023-05-06T04:47:34.300Z,0.4775
2023-05-06T04:48:37.193Z,0.4735
2023-05-06T04:49:40.192Z,0.4745
2023-05-06T04:50:43.089Z,0.5006
2023-05-06T04:51:46.045Z,0.5058
2023-05-06T04:52:48.963Z,0.4934
2023-05-06T04:53:51.909Z,0.4957
2023-05-06T04:54:54.889Z,0.4878
2023-05-06T04:55:57.800Z,0.4928
2023-05-06T04:57:00.776Z,0.5129
2023-05-06T04:58:03.703Z,0.5107
2023-05-06T04:59:06.627Z,0.5034
2023-05-06T05:00:09.783Z,0.4870
2023-05-06T05:01:12.554Z,0.4743
2023-05-06T05:02:15.580Z,0.4774
2023-05-06T05:03:18.452Z,0.4984
2023-05-06T05:04:21.367Z,0.5033
2023-05-06T05:05:24.313Z,0.4966
2023-05-06T05:06:27.250Z,0.5073
2023-05-06T05:07:30.190Z,0.5009
2023-05-06T05:08:33.137Z,0.4795
2023-05-06T05:09:36.102Z,0.4890
2023-05-06T05:10:39.057Z,0.5012
2023-05-06T05:11:41.943Z,0.5051
2023-05-06T05:12:44.902Z,0.4838
2023-05-06T05:13:47.836Z,0.4947
2023-05-06T05:14:50.770Z,0.4656
2023-05-06T05:15:53.754Z,0.4864
2023-05-06T05:16:56.699Z,0.4916
2023-05-06T05:17:59.676Z,0.4725
2023-05-06T05:19:03.727Z,0.4785
2023-05-06T05:20:05.496Z,0.4923
2023-05-06T05:21:08.478Z,0.4894
2023-05-06T05:22:11.391Z,0.4781
2023-05-06T05:23:14.340Z,0.4993
2023-05-06T05:24:17.321Z,0.4967
2023-05-06T05:25:20.225Z,0.4802
2023-05-06T05:26:23.212Z,0.4808
2023-05-06T05:27:26.103Z,0.4783
2023-05-06T05:28:29.038Z,0.5215
2023-05-06T05:29:32.050Z,0.5307
2023-05-06T05:30:34.943Z,0.5325
2023-05-06T05:31:37.965Z,0.5166
2023-05-06T05:32:40.881Z,0.5079
2023-05-06T05:33:43.831Z,0.4909
2023-05-06T05:34:46.692Z,0.4966
2023-05-06T05:35:49.674Z,0.4979
2023-05-06T05:36:52.571Z,0.4993
2023-05-06T05:37:55.518Z,0.5036
2023-05-06T05:38:58.466Z,0.4908
2023-05-06T05:40:01.404Z,0.4781
2023-05-06T05:41:04.428Z,0.5022
2023-05-06T05:42:07.291Z,0.5038
2023-05-06T05:43:10.237Z,0.5240
2023-05-06T05:44:13.171Z,0.5220
2023-05-06T05:45:16.151Z,0.5043
2023-05-06T05:46:19.113Z,0.4961
2023-05-06T05:47:21.997Z,0.4827
2023-05-06T05:48:24.965Z,0.4950
2023-05-06T05:49:27.998Z,0.5133
2023-05-06T05:50:30.863Z,0.5088
2023-05-06T05:51:33.772Z,0.4944
2023-05-06T05:52:36.737Z,0.4890
2023-05-06T05:53:39.703Z,0.4969
2023-05-06T05:54:42.605Z,0.5011
2023-05-06T05:55:45.530Z,0.5230
2023-05-06T05:56:48.501Z,0.5399
2023-05-06T05:57:51.431Z,0.5277
2023-05-06T05:58:54.415Z,0.5244
2023-05-06T05:59:57.311Z,0.5435
2023-05-06T06:01:00.266Z,0.5418
2023-05-06T06:02:03.213Z,0.5369
2023-05-06T06:03:06.460Z,0.5245
2023-05-06T06:04:09.142Z,0.5168
2023-05-06T06:05:12.205Z,0.5096
2023-05-06T06:06:14.985Z,0.5042
2023-05-06T06:07:17.936Z,0.4811
2023-05-06T06:08:20.860Z,0.4963
2023-05-06T06:09:23.814Z,0.4802
2023-05-06T06:10:26.850Z,0.4889
2023-05-06T06:11:29.713Z,0.5099
2023-05-06T06:12:32.678Z,0.5231
2023-05-06T06:13:35.592Z,0.4975
2023-05-06T06:14:38.545Z,0.4848
2023-05-06T06:15:41.473Z,0.4988
2023-05-06T06:16:44.452Z,0.5078
2023-05-06T06:17:47.388Z,0.5080
2023-05-06T06:18:50.298Z,0.5051
2023-05-06T06:19:53.248Z,0.4855
2023-05-06T06:20:56.277Z,0.4682
2023-05-06T06:21:59.158Z,0.4814
2023-05-06T06:23:02.104Z,0.4817
2023-05-06T06:24:05.057Z,0.4933
2023-05-06T06:25:08.126Z,0.5005
2023-05-06T06:26:12.318Z,0.4873
2023-05-06T06:27:13.888Z,0.4787
2023-05-06T06:28:16.822Z,0.4917
2023-05-06T06:29:19.759Z,0.4856
2023-05-06T06:30:22.709Z,0.5130
2023-05-06T06:31:25.685Z,0.4982
2023-05-06T06:32:28.659Z,0.4898
2023-05-06T06:33:31.593Z,0.4969
2023-05-06T06:34:34.511Z,0.4657
2023-05-06T06:35:37.434Z,0.4576
2023-05-06T06:36:40.465Z,0.4743
2023-05-06T06:37:43.323Z,0.5037
2023-05-06T06:38:46.311Z,0.5205
2023-05-06T06:39:49.304Z,0.4989
2023-05-06T06:40:52.188Z,0.5002
2023-05-06T06:41:55.199Z,0.4999
2023-05-06T06:42:58.055Z,0.4773
2023-05-06T06:44:01.042Z,0.4869
2023-05-06T06:45:03.965Z,0.4910
2023-05-06T06:46:06.891Z,0.4780
2023-05-06T06:47:09.858Z,0.4811
2023-05-06T06:48:12.814Z,0.5037
2023-05-06T06:49:15.708Z,0.5024
2023-05-06T06:50:18.696Z,0.4942
2023-05-06T06:51:21.603Z,0.4796
2023-05-06T06:52:24.646Z,0.4783
2023-05-06T06:53:27.480Z,0.4734
2023-05-06T06:54:30.427Z,0.4747
2023-05-06T06:55:33.437Z,0.4720
2023-05-06T06:56:36.427Z,0.4761
2023-05-06T06:57:39.325Z,0.4774
2023-05-06T06:58:42.202Z,0.4825
2023-05-06T06:59:45.167Z,0.4845
2023-05-06T07:00:48.144Z,0.4793
2023-05-06T07:01:51.057Z,0.4695
2023-05-06T07:02:54.063Z,0.4799
2023-05-06T07:03:56.963Z,0.5072
2023-05-06T07:04:59.905Z,0.5182
2023-05-06T07:06:02.843Z,0.4899
2023-05-06T07:07:05.748Z,0.4888
2023-05-06T07:08:08.760Z,0.4772
2023-05-06T07:09:11.702Z,0.4795
2023-05-06T07:10:14.585Z,0.4848
2023-05-06T07:11:17.554Z,0.4999
2023-05-06T07:12:20.473Z,0.4963
2023-05-06T07:13:23.547Z,0.4834
2023-05-06T07:14:26.348Z,0.4693
2023-05-06T07:15:29.333Z,0.4759
2023-05-06T07:16:32.254Z,0.4768
2023-05-06T07:17:35.235Z,0.4693
2023-05-06T07:18:38.147Z,0.4825
2023-05-06T07:19:41.106Z,0.4971
2023-05-06T07:20:44.036Z,0.4963
2023-05-06T07:21:47.030Z,0.4822
2023-05-06T07:22:49.960Z,0.4704
2023-05-06T07:23:53.064Z,0.4688
2023-05-06T07:24:55.830Z,0.4947
2023-05-06T07:25:58.768Z,0.5016
2023-05-06T07:27:01.751Z,0.5056
2023-05-06T07:28:04.679Z,0.4958
2023-05-06T07:29:07.645Z,0.5001
2023-05-06T07:30:10.609Z,0.4771
2023-05-06T07:31:13.569Z,0.4514
2023-05-06T07:32:16.476Z,0.4667
2023-05-06T07:33:19.467Z,0.4849
2023-05-06T07:34:22.386Z,0.4874
2023-05-06T07:35:25.311Z,0.5005
2023-05-06T07:36:28.363Z,0.4961
2023-05-06T07:37:31.239Z,0.4776
2023-05-06T07:38:34.296Z,0.4612
2023-05-06T07:39:37.247Z,0.4661
2023-05-06T07:40:40.151Z,0.4923
2023-05-06T07:41:43.100Z,0.4859
2023-05-06T07:42:46.031Z,0.4844
2023-05-06T07:43:49.031Z,0.4866
2023-05-06T07:44:51.971Z,0.4724
2023-05-06T07:45:54.919Z,0.4796
2023-05-06T07:46:58.234Z,0.4738
2023-05-06T07:48:00.858Z,0.4763
2023-05-06T07:49:03.929Z,0.4896
2023-05-06T07:50:06.748Z,0.4955
2023-05-06T07:51:09.642Z,0.4934
2023-05-06T07:52:12.653Z,0.4805
2023-05-06T07:53:15.535Z,0.4882
2023-05-06T07:54:18.503Z,0.4825
2023-05-06T07:55:21.512Z,0.4812
2023-05-06T07:56:24.419Z,0.4686
2023-05-06T07:57:27.394Z,0.4684
2023-05-06T07:58:30.441Z,0.4576
2023-05-06T07:59:33.295Z,0.4767
2023-05-06T08:00:36.195Z,0.4824
2023-05-06T08:01:39.176Z,0.4788
2023-05-06T08:02:42.291Z,0.4774
2023-05-06T08:03:45.198Z,0.4792
2023-05-06T08:04:49.476Z,0.4787
2023-05-06T08:05:50.911Z,0.4640
2023-05-06T08:06:53.870Z,0.4751
2023-05-06T08:07:56.827Z,0.4698
2023-05-06T08:08:59.745Z,0.4779
2023-05-06T08:10:02.699Z,0.4860
2023-05-06T08:11:05.704Z,0.4810
2023-05-06T08:12:08.617Z,0.4804
2023-05-06T08:13:11.569Z,0.4705
2023-05-06T08:14:14.464Z,0.4479
2023-05-06T08:15:17.457Z,0.4560
2023-05-06T08:16:20.923Z,0.4642
2023-05-06T08:17:23.389Z,0.4732
2023-05-06T08:18:26.430Z,0.4898
2023-05-06T08:19:29.193Z,0.4759
2023-05-06T08:20:32.152Z,0.4753
2023-05-06T08:21:35.112Z,0.4835
2023-05-06T08:22:38.072Z,0.4715
2023-05-06T08:23:41.004Z,0.4679
2023-05-06T08:24:43.937Z,0.4615
2023-05-06T08:25:46.909Z,0.4574
2023-05-06T08:26:49.885Z,0.4799
2023-05-06T08:27:52.772Z,0.4895
2023-05-06T08:28:55.714Z,0.4869
2023-05-06T08:29:58.682Z,0.4948
2023-05-06T08:31:01.611Z,0.4888
2023-05-06T08:32:04.616Z,0.4847
2023-05-06T08:33:07.594Z,0.4664
2023-05-06T08:34:10.530Z,0.4730
2023-05-06T08:35:13.666Z,0.4806
2023-05-06T08:36:16.373Z,0.4875
2023-05-06T08:37:19.338Z,0.4812
2023-05-06T08:38:22.289Z,0.4752
2023-05-06T08:39:25.291Z,0.4594
2023-05-06T08:40:28.204Z,0.4740
2023-05-06T08:41:31.243Z,0.4664
2023-05-06T08:42:34.202Z,0.4706
2023-05-06T08:43:37.062Z,0.4652
2023-05-06T08:44:39.996Z,0.4600
2023-05-06T08:45:43.061Z,0.4679
2023-05-06T08:46:45.946Z,0.4740
2023-05-06T08:47:48.969Z,0.4757
2023-05-06T08:48:51.839Z,0.4814
2023-05-06T08:49:54.837Z,0.4753
2023-05-06T08:50:57.755Z,0.4712
2023-05-06T08:52:00.765Z,0.4841
2023-05-06T08:53:03.667Z,0.4928
2023-05-06T08:54:06.638Z,0.5016
2023-05-06T08:55:09.938Z,0.5013
2023-05-06T08:56:12.500Z,0.4579
2023-05-06T08:57:15.420Z,0.4583
2023-05-06T08:58:18.466Z,0.4584
2023-05-06T08:59:21.360Z,0.4749
2023-05-06T09:00:24.273Z,0.4630
2023-05-06T09:01:27.297Z,0.4658
2023-05-06T09:02:30.288Z,0.4722
2023-05-06T09:03:33.206Z,0.4801
2023-05-06T09:04:36.106Z,0.4801
2023-05-06T09:05:39.034Z,0.4786
2023-05-06T09:06:41.991Z,0.4597
2023-05-06T09:07:45.002Z,0.4624
2023-05-06T09:08:47.861Z,0.4531
2023-05-06T09:09:50.814Z,0.4681
2023-05-06T09:10:53.954Z,0.4632
2023-05-06T09:11:56.750Z,0.4741
2023-05-06T09:12:59.736Z,0.4762
2023-05-06T09:14:02.665Z,0.4787
2023-05-06T09:15:05.560Z,0.4601
2023-05-06T09:16:08.528Z,0.4650
2023-05-06T09:17:11.552Z,0.4829
2023-05-06T09:18:14.736Z,0.4908
2023-05-06T09:19:17.442Z,0.4903
2023-05-06T09:20:20.341Z,0.4894
2023-05-06T09:21:23.295Z,0.5020
2023-05-06T09:22:26.239Z,0.4905
2023-05-06T09:23:29.202Z,0.4831
2023-05-06T09:24:32.135Z,0.4920
2023-05-06T09:25:35.210Z,0.4760
2023-05-06T09:26:38.071Z,0.4785
2023-05-06T09:27:41.098Z,0.4810
2023-05-06T09:28:43.951Z,0.4852
2023-05-06T09:29:46.987Z,0.4888
2023-05-06T09:30:49.987Z,0.4777
2023-05-06T09:31:52.832Z,0.4700
2023-05-06T09:32:55.856Z,0.4756
2023-05-06T09:33:58.804Z,0.4873
2023-05-06T09:35:01.721Z,0.4941
2023-05-06T09:36:04.641Z,0.4982
2023-05-06T09:37:07.583Z,0.5014
2023-05-06T09:38:10.605Z,0.4894
2023-05-06T09:39:13.616Z,0.4952
2023-05-06T09:40:16.509Z,0.4783
2023-05-06T09:41:19.400Z,0.4647
2023-05-06T09:42:22.446Z,0.4721
2023-05-06T09:43:25.358Z,0.4702
2023-05-06T09:44:28.293Z,0.4692
2023-05-06T09:45:31.296Z,0.4767
2023-05-06T09:46:34.193Z,0.4729
2023-05-06T09:47:37.200Z,0.4597
2023-05-06T09:48:40.081Z,0.4510
2023-05-06T09:49:43.064Z,0.4479
2023-05-06T09:50:45.983Z,0.4604
2023-05-06T09:51:48.973Z,0.4680
2023-05-06T09:52:51.906Z,0.4695
2023-05-06T09:53:54.851Z,0.4839
2023-05-06T09:54:57.803Z,0.4946
2023-05-06T09:56:00.774Z,0.4915
2023-05-06T09:57:03.729Z,0.4789
2023-05-06T09:58:06.666Z,0.4715
2023-05-06T09:59:09.647Z,0.4593
2023-05-06T10:00:12.685Z,0.4512
2023-05-06T10:01:25.204Z,0.4662
2023-05-06T10:02:18.602Z,0.4806
2023-05-06T10:03:21.563Z,0.4726
2023-05-06T10:04:25.594Z,0.4655
2023-05-06T10:05:27.425Z,0.4524
2023-05-06T10:06:30.297Z,0.4478
2023-05-06T10:07:33.312Z,0.4497
2023-05-06T10:08:36.262Z,0.4750
2023-05-06T10:09:39.177Z,0.4699
2023-05-06T10:10:42.291Z,0.4653
2023-05-06T10:11:45.084Z,0.4733
2023-05-06T10:12:48.085Z,0.4763
2023-05-06T10:13:50.985Z,0.4743
2023-05-06T10:14:53.930Z,0.4749
2023-05-06T10:15:56.911Z,0.4732
2023-05-06T10:16:59.893Z,0.4622
2023-05-06T10:18:02.825Z,0.4669
2023-05-06T10:19:05.766Z,0.4682
2023-05-06T10:20:08.699Z,0.4732
2023-05-06T10:21:11.739Z,0.4800
2023-05-06T10:22:14.618Z,0.4745
2023-05-06T10:23:17.547Z,0.4716
2023-05-06T10:24:20.592Z,0.4594
2023-05-06T10:25:23.457Z,0.4603
2023-05-06T10:26:26.397Z,0.4778
2023-05-06T10:27:29.366Z,0.4911
2023-05-06T10:28:32.320Z,0.4859
2023-05-06T10:29:35.396Z,0.4822
2023-05-06T10:30:38.195Z,0.4936
2023-05-06T10:31:41.202Z,0.4815
2023-05-06T10:32:44.209Z,0.4677
2023-05-06T10:33:47.146Z,0.4594
2023-05-06T10:34:50.031Z,0.4763
2023-05-06T10:35:52.986Z,0.4659
2023-05-06T10:36:55.922Z,0.4676
2023-05-06T10:37:58.868Z,0.4679
2023-05-06T10:39:01.824Z,0.4718
2023-05-06T10:40:04.786Z,0.4841
2023-05-06T10:41:07.727Z,0.4741
2023-05-06T10:42:10.655Z,0.4761
2023-05-06T10:43:13.643Z,0.4772
2023-05-06T10:44:16.724Z,0.4878
2023-05-06T10:45:19.526Z,0.4953
2023-05-06T10:46:22.537Z,0.4780
2023-05-06T10:47:25.439Z,0.4713
2023-05-06T10:48:28.469Z,0.4846
2023-05-06T10:49:31.348Z,0.5013
2023-05-06T10:50:34.309Z,0.5054
2023-05-06T10:51:37.243Z,0.4962
2023-05-06T10:52:40.186Z,0.5003
2023-05-06T10:53:43.177Z,0.5077
2023-05-06T10:54:46.093Z,0.4934
2023-05-06T10:55:49.036Z,0.4910
2023-05-06T10:56:52.006Z,0.4865
2023-05-06T10:57:54.931Z,0.4865
2023-05-06T10:58:57.893Z,0.4931
2023-05-06T11:00:00.865Z,0.4760
2023-05-06T11:01:03.837Z,0.4671
2023-05-06T11:02:06.780Z,0.4860
2023-05-06T11:03:09.832Z,0.4905
2023-05-06T11:04:12.667Z,0.5041
2023-05-06T11:05:15.571Z,0.5121
2023-05-06T11:06:18.584Z,0.5158
2023-05-06T11:07:21.503Z,0.5132
2023-05-06T11:08:24.470Z,0.5059
2023-05-06T11:09:27.389Z,0.5003
2023-05-06T11:10:30.363Z,0.4858
2023-05-06T11:11:33.370Z,0.4662
2023-05-06T11:12:36.326Z,0.4575
2023-05-06T11:13:39.226Z,0.4499
2023-05-06T11:14:42.200Z,0.4527
2023-05-06T11:15:45.152Z,0.4583
2023-05-06T11:16:48.126Z,0.4638
2023-05-06T11:17:51.091Z,0.4724
2023-05-06T11:18:54.029Z,0.4866
2023-05-06T11:19:57.040Z,0.4995
2023-05-06T11:20:59.948Z,0.4831
2023-05-06T11:22:02.912Z,0.4747
2023-05-06T11:23:05.847Z,0.4642
2023-05-06T11:24:08.816Z,0.4606
2023-05-06T11:25:11.771Z,0.4740
2023-05-06T11:26:14.733Z,0.4831
2023-05-06T11:27:17.673Z,0.4678
2023-05-06T11:28:20.589Z,0.4724
2023-05-06T11:29:23.550Z,0.4689
2023-05-06T11:30:26.496Z,0.4551
2023-05-06T11:31:29.609Z,0.4484
2023-05-06T11:32:32.855Z,0.4495
2023-05-06T11:33:35.346Z,0.4552
2023-05-06T11:34:38.343Z,0.4587
2023-05-06T11:35:41.317Z,0.4719
2023-05-06T11:36:44.254Z,0.4738
2023-05-06T11:37:47.242Z,0.4854
2023-05-06T11:38:50.353Z,0.4676
2023-05-06T11:39:53.146Z,0.5029
2023-05-06T11:40:56.067Z,0.5301
2023-05-06T11:41:58.996Z,0.5238
2023-05-06T11:43:01.952Z,0.5406
2023-05-06T11:44:04.931Z,0.5146
2023-05-06T11:45:07.892Z,0.4862
2023-05-06T11:46:10.837Z,0.4973
2023-05-06T11:47:13.874Z,0.4943
2023-05-06T11:48:16.872Z,0.4640
2023-05-06T11:49:19.862Z,0.4566
2023-05-06T11:50:22.830Z,0.4789
2023-05-06T11:51:25.792Z,0.4821
2023-05-06T11:52:28.806Z,0.4819
2023-05-06T11:53:31.630Z,0.4813
2023-05-06T11:54:34.568Z,0.4813
2023-05-06T11:55:37.525Z,0.4800
2023-05-06T11:56:40.489Z,0.4730
2023-05-06T11:57:43.467Z,0.4677
2023-05-06T11:58:46.502Z,0.4685
2023-05-06T11:59:49.372Z,0.4835
2023-05-06T12:00:52.331Z,0.4722
2023-05-06T12:01:55.277Z,0.4993
2023-05-06T12:02:58.283Z,0.4919
2023-05-06T12:04:01.250Z,0.4834
2023-05-06T12:05:04.186Z,0.4866
2023-05-06T12:06:07.085Z,0.4737
2023-05-06T12:07:10.136Z,0.4759
2023-05-06T12:08:23.577Z,0.4841
2023-05-06T12:09:15.962Z,0.4680
2023-05-06T12:10:18.921Z,0.4911
2023-05-06T12:11:21.874Z,0.4941
2023-05-06T12:12:24.895Z,0.4987
2023-05-06T12:13:27.811Z,0.5043
2023-05-06T12:14:30.766Z,0.4956
2023-05-06T12:15:33.724Z,0.4843
2023-05-06T12:16:36.800Z,0.4764
2023-05-06T12:17:39.664Z,0.4510
2023-05-06T12:18:42.659Z,0.4966
2023-05-06T12:19:45.562Z,0.4873
2023-05-06T12:20:48.498Z,0.4864
2023-05-06T12:21:51.506Z,0.4956
2023-05-06T12:22:55.549Z,0.4898
2023-05-06T12:23:57.426Z,0.5024
2023-05-06T12:25:00.309Z,0.4982
2023-05-06T12:26:03.296Z,0.4835
2023-05-06T12:27:06.304Z,0.5007
2023-05-06T12:28:09.183Z,0.4843
2023-05-06T12:29:12.132Z,0.4915
2023-05-06T12:30:15.113Z,0.4890
2023-05-06T12:31:18.056Z,0.4792
2023-05-06T12:32:20.984Z,0.4934
2023-05-06T12:33:23.965Z,0.4796
2023-05-06T12:34:26.911Z,0.4959
2023-05-06T12:35:29.850Z,0.4801
2023-05-06T12:36:32.821Z,0.4880
2023-05-06T12:37:35.749Z,0.4876
2023-05-06T12:38:38.770Z,0.5033
2023-05-06T12:39:41.662Z,0.4923
2023-05-06T12:40:44.701Z,0.4883
2023-05-06T12:41:47.579Z,0.4687
2023-05-06T12:42:50.562Z,0.4754
2023-05-06T12:43:53.464Z,0.4870
2023-05-06T12:44:56.406Z,0.5000
2023-05-06T12:45:59.441Z,0.5113
2023-05-06T12:47:02.365Z,0.5002
2023-05-06T12:48:05.272Z,0.4971
2023-05-06T12:49:08.315Z,0.4931
2023-05-06T12:50:11.459Z,0.4945
2023-05-06T12:51:14.159Z,0.4835
2023-05-06T12:52:17.074Z,0.4826
2023-05-06T12:53:20.034Z,0.4813
2023-05-06T12:54:23.008Z,0.4830
2023-05-06T12:55:26.034Z,0.4830
2023-05-06T12:56:28.958Z,0.5178
2023-05-06T12:57:31.916Z,0.5040
2023-05-06T12:58:34.780Z,0.4922
2023-05-06T12:59:37.752Z,0.4807
2023-05-06T13:00:40.783Z,0.4651
2023-05-06T13:01:43.646Z,0.4785
2023-05-06T13:02:46.744Z,0.4814
2023-05-06T13:03:49.660Z,0.4833
2023-05-06T13:04:52.519Z,0.4908